sensor_id;sensor_type;location;lat;lon;timestamp;P1;durP1;ratioP1;P2;durP2;ratioP2
15443;SDS011;7822;48.146;11.576;2022-08-01T00:01:29;3.00;;;2.58;;
15443;SDS011;7822;48.146;11.576;2022-08-01T00:04:02;2.83;;;2.63;;
15443;SDS011;7822;48.146;11.576;2022-08-01T00:06:30;3.03;;;2.65;;
15443;SDS011;7822;48.146;11.576;2022-08-01T00:08:59;2.80;;;2.60;;
15443;SDS011;7822;48.146;11.576;2022-08-01T00:11:28;2.83;;;2.63;;
15443;SDS011;7822;48.146;11.576;2022-08-01T00:13:56;2.72;;;2.53;;
15443;SDS011;7822;48.146;11.576;2022-08-01T00:16:26;2.83;;;2.63;;
15443;SDS011;7822;48.146;11.576;2022-08-01T00:18:55;2.72;;;2.53;;
15443;SDS011;7822;48.146;11.576;2022-08-01T00:21:26;3.10;;;2.90;;
15443;SDS011;7822;48.146;11.576;2022-08-01T00:23:54;3.00;;;2.80;;
15443;SDS011;7822;48.146;11.576;2022-08-01T00:26:23;3.13;;;2.65;;
15443;SDS011;7822;48.146;11.576;2022-08-01T00:28:51;2.42;;;2.33;;
15443;SDS011;7822;48.146;11.576;2022-08-01T00:31:19;2.65;;;2.45;;
15443;SDS011;7822;48.146;11.576;2022-08-01T00:33:47;2.75;;;2.55;;
15443;SDS011;7822;48.146;11.576;2022-08-01T00:36:15;2.78;;;2.60;;
15443;SDS011;7822;48.146;11.576;2022-08-01T00:38:42;2.40;;;2.30;;
15443;SDS011;7822;48.146;11.576;2022-08-01T00:41:10;2.88;;;2.67;;
15443;SDS011;7822;48.146;11.576;2022-08-01T00:43:39;3.25;;;2.95;;
15443;SDS011;7822;48.146;11.576;2022-08-01T00:46:07;2.35;;;2.25;;
15443;SDS011;7822;48.146;11.576;2022-08-01T00:48:35;2.70;;;2.50;;
15443;SDS011;7822;48.146;11.576;2022-08-01T00:51:03;3.00;;;2.70;;
15443;SDS011;7822;48.146;11.576;2022-08-01T00:53:35;3.33;;;2.80;;
15443;SDS011;7822;48.146;11.576;2022-08-01T00:56:17;2.97;;;2.78;;
15443;SDS011;7822;48.146;11.576;2022-08-01T00:58:47;2.65;;;2.55;;
15443;SDS011;7822;48.146;11.576;2022-08-01T01:01:17;2.90;;;2.63;;
15443;SDS011;7822;48.146;11.576;2022-08-01T01:03:48;2.80;;;2.60;;
15443;SDS011;7822;48.146;11.576;2022-08-01T01:06:26;2.75;;;2.53;;
15443;SDS011;7822;48.146;11.576;2022-08-01T01:09:17;3.90;;;2.70;;
15443;SDS011;7822;48.146;11.576;2022-08-01T01:12:00;2.80;;;2.60;;
15443;SDS011;7822;48.146;11.576;2022-08-01T01:14:36;2.83;;;2.55;;
15443;SDS011;7822;48.146;11.576;2022-08-01T01:17:12;2.70;;;2.50;;
15443;SDS011;7822;48.146;11.576;2022-08-01T01:20:04;3.30;;;2.85;;
15443;SDS011;7822;48.146;11.576;2022-08-01T01:22:40;2.88;;;2.67;;
15443;SDS011;7822;48.146;11.576;2022-08-01T01:25:26;3.00;;;2.30;;
15443;SDS011;7822;48.146;11.576;2022-08-01T01:28:10;3.90;;;2.70;;
15443;SDS011;7822;48.146;11.576;2022-08-01T01:30:45;3.10;;;2.63;;
15443;SDS011;7822;48.146;11.576;2022-08-01T01:33:16;2.88;;;2.67;;
15443;SDS011;7822;48.146;11.576;2022-08-01T01:35:47;2.92;;;2.70;;
15443;SDS011;7822;48.146;11.576;2022-08-01T01:38:20;3.15;;;2.83;;
15443;SDS011;7822;48.146;11.576;2022-08-01T01:40:51;2.60;;;2.40;;
15443;SDS011;7822;48.146;11.576;2022-08-01T01:43:20;2.78;;;2.40;;
15443;SDS011;7822;48.146;11.576;2022-08-01T01:46:00;3.25;;;2.92;;
15443;SDS011;7822;48.146;11.576;2022-08-01T01:48:30;3.30;;;2.63;;
15443;SDS011;7822;48.146;11.576;2022-08-01T01:51:00;2.88;;;2.67;;
15443;SDS011;7822;48.146;11.576;2022-08-01T01:53:33;3.17;;;2.72;;
15443;SDS011;7822;48.146;11.576;2022-08-01T01:56:04;3.58;;;2.55;;
15443;SDS011;7822;48.146;11.576;2022-08-01T01:58:33;2.83;;;2.63;;
15443;SDS011;7822;48.146;11.576;2022-08-01T02:01:05;2.90;;;2.42;;
15443;SDS011;7822;48.146;11.576;2022-08-01T02:03:40;3.03;;;2.45;;
15443;SDS011;7822;48.146;11.576;2022-08-01T02:06:11;2.50;;;2.30;;
15443;SDS011;7822;48.146;11.576;2022-08-01T02:08:40;2.90;;;2.70;;
15443;SDS011;7822;48.146;11.576;2022-08-01T02:11:10;2.55;;;2.40;;
15443;SDS011;7822;48.146;11.576;2022-08-01T02:13:49;3.28;;;2.97;;
15443;SDS011;7822;48.146;11.576;2022-08-01T02:16:23;2.80;;;2.60;;
15443;SDS011;7822;48.146;11.576;2022-08-01T02:18:53;2.85;;;2.58;;
15443;SDS011;7822;48.146;11.576;2022-08-01T02:21:23;3.25;;;2.95;;
15443;SDS011;7822;48.146;11.576;2022-08-01T02:23:54;2.90;;;2.70;;
15443;SDS011;7822;48.146;11.576;2022-08-01T02:26:31;2.97;;;2.78;;
15443;SDS011;7822;48.146;11.576;2022-08-01T02:29:02;2.67;;;2.47;;
15443;SDS011;7822;48.146;11.576;2022-08-01T02:31:35;2.83;;;2.38;;
15443;SDS011;7822;48.146;11.576;2022-08-01T02:34:09;2.78;;;2.55;;
15443;SDS011;7822;48.146;11.576;2022-08-01T02:36:38;3.08;;;2.50;;
15443;SDS011;7822;48.146;11.576;2022-08-01T02:39:08;3.25;;;2.75;;
15443;SDS011;7822;48.146;11.576;2022-08-01T02:41:38;3.45;;;2.45;;
15443;SDS011;7822;48.146;11.576;2022-08-01T02:44:09;2.65;;;2.47;;
15443;SDS011;7822;48.146;11.576;2022-08-01T02:46:46;2.92;;;2.72;;
15443;SDS011;7822;48.146;11.576;2022-08-01T02:49:17;2.97;;;2.78;;
15443;SDS011;7822;48.146;11.576;2022-08-01T02:51:50;2.92;;;2.72;;
15443;SDS011;7822;48.146;11.576;2022-08-01T02:54:22;2.75;;;2.50;;
15443;SDS011;7822;48.146;11.576;2022-08-01T02:56:51;3.03;;;2.83;;
15443;SDS011;7822;48.146;11.576;2022-08-01T02:59:23;2.42;;;2.22;;
15443;SDS011;7822;48.146;11.576;2022-08-01T03:01:56;2.70;;;2.50;;
15443;SDS011;7822;48.146;11.576;2022-08-01T03:04:28;2.50;;;2.30;;
15443;SDS011;7822;48.146;11.576;2022-08-01T03:06:58;2.60;;;2.47;;
15443;SDS011;7822;48.146;11.576;2022-08-01T03:09:30;3.08;;;2.78;;
15443;SDS011;7822;48.146;11.576;2022-08-01T03:12:02;4.25;;;2.60;;
15443;SDS011;7822;48.146;11.576;2022-08-01T03:14:34;2.83;;;2.58;;
15443;SDS011;7822;48.146;11.576;2022-08-01T03:17:05;3.28;;;2.85;;
15443;SDS011;7822;48.146;11.576;2022-08-01T03:19:34;2.72;;;2.40;;
15443;SDS011;7822;48.146;11.576;2022-08-01T03:22:04;2.75;;;2.55;;
15443;SDS011;7822;48.146;11.576;2022-08-01T03:24:34;2.60;;;2.40;;
15443;SDS011;7822;48.146;11.576;2022-08-01T03:27:05;2.70;;;2.50;;
15443;SDS011;7822;48.146;11.576;2022-08-01T03:29:38;2.83;;;2.35;;
15443;SDS011;7822;48.146;11.576;2022-08-01T03:32:08;2.90;;;2.70;;
15443;SDS011;7822;48.146;11.576;2022-08-01T03:34:38;2.92;;;2.58;;
15443;SDS011;7822;48.146;11.576;2022-08-01T03:37:07;2.75;;;2.47;;
15443;SDS011;7822;48.146;11.576;2022-08-01T03:39:40;3.08;;;2.67;;
15443;SDS011;7822;48.146;11.576;2022-08-01T03:42:16;4.65;;;2.60;;
15443;SDS011;7822;48.146;11.576;2022-08-01T03:44:48;2.97;;;2.45;;
15443;SDS011;7822;48.146;11.576;2022-08-01T03:47:24;2.22;;;2.13;;
15443;SDS011;7822;48.146;11.576;2022-08-01T03:49:57;2.47;;;2.25;;
15443;SDS011;7822;48.146;11.576;2022-08-01T03:52:27;2.80;;;2.60;;
15443;SDS011;7822;48.146;11.576;2022-08-01T03:54:56;3.42;;;2.65;;
15443;SDS011;7822;48.146;11.576;2022-08-01T03:57:27;2.65;;;2.45;;
15443;SDS011;7822;48.146;11.576;2022-08-01T04:00:02;2.92;;;2.65;;
15443;SDS011;7822;48.146;11.576;2022-08-01T04:02:34;3.72;;;2.80;;
15443;SDS011;7822;48.146;11.576;2022-08-01T04:05:04;3.50;;;2.83;;
15443;SDS011;7822;48.146;11.576;2022-08-01T04:07:33;3.63;;;2.67;;
15443;SDS011;7822;48.146;11.576;2022-08-01T04:10:02;3.45;;;2.55;;
15443;SDS011;7822;48.146;11.576;2022-08-01T04:12:30;2.65;;;2.45;;
15443;SDS011;7822;48.146;11.576;2022-08-01T04:14:58;2.60;;;2.40;;
15443;SDS011;7822;48.146;11.576;2022-08-01T04:17:26;2.80;;;2.60;;
15443;SDS011;7822;48.146;11.576;2022-08-01T04:19:55;3.45;;;2.72;;
15443;SDS011;7822;48.146;11.576;2022-08-01T04:22:23;2.80;;;2.60;;
15443;SDS011;7822;48.146;11.576;2022-08-01T04:24:51;2.55;;;2.35;;
15443;SDS011;7822;48.146;11.576;2022-08-01T04:27:24;2.92;;;2.72;;
15443;SDS011;7822;48.146;11.576;2022-08-01T04:30:16;3.00;;;2.80;;
15443;SDS011;7822;48.146;11.576;2022-08-01T04:32:46;3.05;;;2.25;;
15443;SDS011;7822;48.146;11.576;2022-08-01T04:35:17;4.07;;;2.42;;
15443;SDS011;7822;48.146;11.576;2022-08-01T04:38:07;2.85;;;2.53;;
15443;SDS011;7822;48.146;11.576;2022-08-01T04:40:38;2.80;;;2.60;;
15443;SDS011;7822;48.146;11.576;2022-08-01T04:43:08;2.58;;;2.38;;
15443;SDS011;7822;48.146;11.576;2022-08-01T04:45:36;4.10;;;3.05;;
15443;SDS011;7822;48.146;11.576;2022-08-01T04:48:06;2.63;;;2.42;;
15443;SDS011;7822;48.146;11.576;2022-08-01T04:50:36;2.85;;;2.65;;
15443;SDS011;7822;48.146;11.576;2022-08-01T04:53:04;3.70;;;2.88;;
15443;SDS011;7822;48.146;11.576;2022-08-01T04:55:33;2.70;;;2.50;;
15443;SDS011;7822;48.146;11.576;2022-08-01T04:58:01;2.88;;;2.67;;
15443;SDS011;7822;48.146;11.576;2022-08-01T05:00:30;3.13;;;2.50;;
15443;SDS011;7822;48.146;11.576;2022-08-01T05:03:00;3.10;;;2.35;;
15443;SDS011;7822;48.146;11.576;2022-08-01T05:05:28;2.75;;;2.55;;
15443;SDS011;7822;48.146;11.576;2022-08-01T05:07:59;3.22;;;2.92;;
15443;SDS011;7822;48.146;11.576;2022-08-01T05:10:27;2.88;;;2.67;;
15443;SDS011;7822;48.146;11.576;2022-08-01T05:12:58;2.60;;;2.40;;
15443;SDS011;7822;48.146;11.576;2022-08-01T05:15:26;2.83;;;2.63;;
15443;SDS011;7822;48.146;11.576;2022-08-01T05:17:55;3.75;;;2.80;;
15443;SDS011;7822;48.146;11.576;2022-08-01T05:20:23;4.70;;;2.90;;
15443;SDS011;7822;48.146;11.576;2022-08-01T05:22:51;6.40;;;2.70;;
15443;SDS011;7822;48.146;11.576;2022-08-01T05:25:21;3.63;;;2.90;;
15443;SDS011;7822;48.146;11.576;2022-08-01T05:28:09;4.35;;;2.90;;
15443;SDS011;7822;48.146;11.576;2022-08-01T05:30:44;3.00;;;2.70;;
15443;SDS011;7822;48.146;11.576;2022-08-01T05:33:12;3.58;;;2.80;;
15443;SDS011;7822;48.146;11.576;2022-08-01T05:35:39;4.97;;;2.90;;
15443;SDS011;7822;48.146;11.576;2022-08-01T05:40:57;4.30;;;3.17;;
15443;SDS011;7822;48.146;11.576;2022-08-01T05:43:25;4.35;;;3.15;;
15443;SDS011;7822;48.146;11.576;2022-08-01T05:45:54;3.20;;;3.00;;
15443;SDS011;7822;48.146;11.576;2022-08-01T05:48:22;2.78;;;2.38;;
15443;SDS011;7822;48.146;11.576;2022-08-01T05:50:50;3.08;;;2.88;;
15443;SDS011;7822;48.146;11.576;2022-08-01T05:53:24;2.97;;;2.78;;
15443;SDS011;7822;48.146;11.576;2022-08-01T05:55:51;3.85;;;3.53;;
15443;SDS011;7822;48.146;11.576;2022-08-01T05:58:21;3.58;;;2.83;;
15443;SDS011;7822;48.146;11.576;2022-08-01T06:00:48;3.50;;;2.75;;
15443;SDS011;7822;48.146;11.576;2022-08-01T06:03:16;3.45;;;2.67;;
15443;SDS011;7822;48.146;11.576;2022-08-01T06:05:45;2.67;;;2.47;;
15443;SDS011;7822;48.146;11.576;2022-08-01T06:08:13;3.97;;;3.30;;
15443;SDS011;7822;48.146;11.576;2022-08-01T06:10:41;2.90;;;2.67;;
15443;SDS011;7822;48.146;11.576;2022-08-01T06:13:08;3.30;;;2.83;;
15443;SDS011;7822;48.146;11.576;2022-08-01T06:15:37;3.35;;;3.05;;
15443;SDS011;7822;48.146;11.576;2022-08-01T06:18:05;3.85;;;2.92;;
15443;SDS011;7822;48.146;11.576;2022-08-01T06:20:33;3.63;;;2.75;;
15443;SDS011;7822;48.146;11.576;2022-08-01T06:23:01;2.97;;;2.75;;
15443;SDS011;7822;48.146;11.576;2022-08-01T06:25:51;3.83;;;3.10;;
15443;SDS011;7822;48.146;11.576;2022-08-01T06:28:21;3.78;;;3.00;;
15443;SDS011;7822;48.146;11.576;2022-08-01T06:30:50;3.60;;;2.90;;
15443;SDS011;7822;48.146;11.576;2022-08-01T06:33:18;3.97;;;3.20;;
15443;SDS011;7822;48.146;11.576;2022-08-01T06:35:46;3.58;;;3.28;;
15443;SDS011;7822;48.146;11.576;2022-08-01T06:38:14;3.08;;;2.88;;
15443;SDS011;7822;48.146;11.576;2022-08-01T06:40:43;3.72;;;2.80;;
15443;SDS011;7822;48.146;11.576;2022-08-01T06:43:17;4.20;;;3.42;;
15443;SDS011;7822;48.146;11.576;2022-08-01T06:45:46;3.25;;;2.80;;
15443;SDS011;7822;48.146;11.576;2022-08-01T06:48:16;3.08;;;2.78;;
15443;SDS011;7822;48.146;11.576;2022-08-01T06:50:44;5.45;;;3.20;;
15443;SDS011;7822;48.146;11.576;2022-08-01T06:53:12;3.17;;;2.88;;
15443;SDS011;7822;48.146;11.576;2022-08-01T06:55:40;3.40;;;2.92;;
15443;SDS011;7822;48.146;11.576;2022-08-01T06:58:09;3.25;;;2.92;;
15443;SDS011;7822;48.146;11.576;2022-08-01T07:00:37;3.22;;;2.92;;
15443;SDS011;7822;48.146;11.576;2022-08-01T07:03:04;3.08;;;2.88;;
15443;SDS011;7822;48.146;11.576;2022-08-01T07:05:35;3.05;;;2.85;;
15443;SDS011;7822;48.146;11.576;2022-08-01T07:08:03;4.50;;;3.05;;
15443;SDS011;7822;48.146;11.576;2022-08-01T07:10:32;4.35;;;2.80;;
15443;SDS011;7822;48.146;11.576;2022-08-01T07:13:00;4.03;;;3.20;;
15443;SDS011;7822;48.146;11.576;2022-08-01T07:15:33;4.70;;;3.20;;
15443;SDS011;7822;48.146;11.576;2022-08-01T07:18:02;4.40;;;3.13;;
15443;SDS011;7822;48.146;11.576;2022-08-01T07:20:31;3.20;;;3.00;;
15443;SDS011;7822;48.146;11.576;2022-08-01T07:23:19;3.58;;;3.28;;
15443;SDS011;7822;48.146;11.576;2022-08-01T07:26:03;3.67;;;3.38;;
15443;SDS011;7822;48.146;11.576;2022-08-01T07:28:37;3.40;;;3.10;;
15443;SDS011;7822;48.146;11.576;2022-08-01T07:31:09;3.47;;;3.13;;
15443;SDS011;7822;48.146;11.576;2022-08-01T07:34:04;3.17;;;2.88;;
15443;SDS011;7822;48.146;11.576;2022-08-01T07:36:55;3.53;;;3.20;;
15443;SDS011;7822;48.146;11.576;2022-08-01T07:40:21;3.88;;;3.10;;
15443;SDS011;7822;48.146;11.576;2022-08-01T07:43:09;4.10;;;3.55;;
15443;SDS011;7822;48.146;11.576;2022-08-01T07:45:37;3.78;;;3.47;;
15443;SDS011;7822;48.146;11.576;2022-08-01T07:48:11;3.78;;;3.47;;
15443;SDS011;7822;48.146;11.576;2022-08-01T07:50:42;3.72;;;3.20;;
15443;SDS011;7822;48.146;11.576;2022-08-01T07:53:10;3.42;;;3.00;;
15443;SDS011;7822;48.146;11.576;2022-08-01T07:55:48;3.47;;;3.17;;
15443;SDS011;7822;48.146;11.576;2022-08-01T07:58:19;3.72;;;3.42;;
15443;SDS011;7822;48.146;11.576;2022-08-01T08:00:53;5.95;;;3.45;;
15443;SDS011;7822;48.146;11.576;2022-08-01T08:19:23;3.42;;;3.22;;
15443;SDS011;7822;48.146;11.576;2022-08-01T08:22:04;4.07;;;3.45;;
15443;SDS011;7822;48.146;11.576;2022-08-01T08:24:33;3.63;;;3.28;;
15443;SDS011;7822;48.146;11.576;2022-08-01T08:27:12;4.15;;;3.47;;
15443;SDS011;7822;48.146;11.576;2022-08-01T08:29:44;5.63;;;3.40;;
15443;SDS011;7822;48.146;11.576;2022-08-01T08:42:55;6.28;;;3.08;;
15443;SDS011;7822;48.146;11.576;2022-08-01T08:45:25;4.40;;;3.60;;
15443;SDS011;7822;48.146;11.576;2022-08-01T08:48:13;3.70;;;3.40;;
15443;SDS011;7822;48.146;11.576;2022-08-01T08:50:43;3.58;;;3.30;;
15443;SDS011;7822;48.146;11.576;2022-08-01T09:11:55;3.30;;;3.00;;
15443;SDS011;7822;48.146;11.576;2022-08-01T09:14:23;3.40;;;3.10;;
15443;SDS011;7822;48.146;11.576;2022-08-01T09:17:00;3.38;;;3.08;;
15443;SDS011;7822;48.146;11.576;2022-08-01T09:19:36;3.38;;;3.00;;
15443;SDS011;7822;48.146;11.576;2022-08-01T09:22:10;3.25;;;2.95;;
15443;SDS011;7822;48.146;11.576;2022-08-01T09:24:39;3.10;;;2.90;;
15443;SDS011;7822;48.146;11.576;2022-08-01T09:27:16;4.18;;;3.03;;
15443;SDS011;7822;48.146;11.576;2022-08-01T09:29:48;5.13;;;2.85;;
15443;SDS011;7822;48.146;11.576;2022-08-01T09:32:27;2.72;;;2.50;;
15443;SDS011;7822;48.146;11.576;2022-08-01T09:35:21;3.28;;;3.00;;
15443;SDS011;7822;48.146;11.576;2022-08-01T09:38:13;3.38;;;3.15;;
15443;SDS011;7822;48.146;11.576;2022-08-01T09:40:45;3.08;;;2.65;;
15443;SDS011;7822;48.146;11.576;2022-08-01T09:43:16;3.05;;;2.10;;
15443;SDS011;7822;48.146;11.576;2022-08-01T09:53:31;2.88;;;2.67;;
15443;SDS011;7822;48.146;11.576;2022-08-01T09:56:20;3.05;;;2.60;;
15443;SDS011;7822;48.146;11.576;2022-08-01T09:58:54;4.70;;;2.90;;
15443;SDS011;7822;48.146;11.576;2022-08-01T10:01:27;2.60;;;2.40;;
15443;SDS011;7822;48.146;11.576;2022-08-01T10:04:04;5.15;;;2.47;;
15443;SDS011;7822;48.146;11.576;2022-08-01T10:06:36;2.47;;;2.35;;
15443;SDS011;7822;48.146;11.576;2022-08-01T10:09:04;2.80;;;2.55;;
15443;SDS011;7822;48.146;11.576;2022-08-01T10:11:32;2.40;;;2.20;;
15443;SDS011;7822;48.146;11.576;2022-08-01T10:14:06;3.35;;;2.40;;
15443;SDS011;7822;48.146;11.576;2022-08-01T10:16:35;2.78;;;2.55;;
15443;SDS011;7822;48.146;11.576;2022-08-01T10:19:05;3.03;;;2.60;;
15443;SDS011;7822;48.146;11.576;2022-08-01T10:27:08;2.75;;;2.17;;
15443;SDS011;7822;48.146;11.576;2022-08-01T10:29:43;2.45;;;2.10;;
15443;SDS011;7822;48.146;11.576;2022-08-01T10:32:28;2.60;;;2.40;;
15443;SDS011;7822;48.146;11.576;2022-08-01T10:56:40;1.75;;;1.65;;
15443;SDS011;7822;48.146;11.576;2022-08-01T11:18:57;2.40;;;2.20;;
15443;SDS011;7822;48.146;11.576;2022-08-01T11:27:24;2.30;;;2.10;;
15443;SDS011;7822;48.146;11.576;2022-08-01T11:32:58;2.30;;;2.20;;
15443;SDS011;7822;48.146;11.576;2022-08-01T11:35:37;3.08;;;2.22;;
15443;SDS011;7822;48.146;11.576;2022-08-01T11:38:26;2.50;;;2.00;;
15443;SDS011;7822;48.146;11.576;2022-08-01T11:41:09;2.50;;;2.30;;
15443;SDS011;7822;48.146;11.576;2022-08-01T11:46:46;2.22;;;2.03;;
15443;SDS011;7822;48.146;11.576;2022-08-01T11:49:24;1.90;;;1.80;;
15443;SDS011;7822;48.146;11.576;2022-08-01T11:52:05;2.35;;;2.15;;
15443;SDS011;7822;48.146;11.576;2022-08-01T11:54:36;3.25;;;2.22;;
15443;SDS011;7822;48.146;11.576;2022-08-01T11:57:07;2.15;;;1.98;;
15443;SDS011;7822;48.146;11.576;2022-08-01T11:59:40;2.05;;;1.92;;
15443;SDS011;7822;48.146;11.576;2022-08-01T12:03:03;2.25;;;2.00;;
15443;SDS011;7822;48.146;11.576;2022-08-01T12:05:37;2.88;;;1.80;;
15443;SDS011;7822;48.146;11.576;2022-08-01T12:26:57;3.90;;;1.80;;
15443;SDS011;7822;48.146;11.576;2022-08-01T12:29:35;2.10;;;1.98;;
15443;SDS011;7822;48.146;11.576;2022-08-01T12:53:34;1.60;;;1.42;;
15443;SDS011;7822;48.146;11.576;2022-08-01T12:56:06;1.75;;;1.42;;
15443;SDS011;7822;48.146;11.576;2022-08-01T13:01:16;1.60;;;1.50;;
15443;SDS011;7822;48.146;11.576;2022-08-01T13:03:57;2.03;;;1.83;;
15443;SDS011;7822;48.146;11.576;2022-08-01T13:06:30;1.63;;;1.52;;
15443;SDS011;7822;48.146;11.576;2022-08-01T13:09:08;2.30;;;1.48;;
15443;SDS011;7822;48.146;11.576;2022-08-01T13:11:37;2.33;;;1.77;;
15443;SDS011;7822;48.146;11.576;2022-08-01T13:21:08;1.33;;;1.23;;
15443;SDS011;7822;48.146;11.576;2022-08-01T13:23:38;4.93;;;1.77;;
15443;SDS011;7822;48.146;11.576;2022-08-01T13:29:32;1.40;;;1.30;;
15443;SDS011;7822;48.146;11.576;2022-08-01T13:32:11;2.50;;;1.55;;
15443;SDS011;7822;48.146;11.576;2022-08-01T13:35:00;4.65;;;1.83;;
15443;SDS011;7822;48.146;11.576;2022-08-01T13:37:29;1.80;;;1.70;;
15443;SDS011;7822;48.146;11.576;2022-08-01T13:39:57;3.35;;;1.63;;
15443;SDS011;7822;48.146;11.576;2022-08-01T13:42:25;2.70;;;1.67;;
15443;SDS011;7822;48.146;11.576;2022-08-01T13:44:57;2.10;;;1.90;;
15443;SDS011;7822;48.146;11.576;2022-08-01T13:47:25;1.92;;;1.80;;
15443;SDS011;7822;48.146;11.576;2022-08-01T13:49:57;1.60;;;1.50;;
15443;SDS011;7822;48.146;11.576;2022-08-01T13:52:27;2.35;;;1.55;;
15443;SDS011;7822;48.146;11.576;2022-08-01T13:54:58;2.05;;;1.40;;
15443;SDS011;7822;48.146;11.576;2022-08-01T13:57:27;1.60;;;1.10;;
15443;SDS011;7822;48.146;11.576;2022-08-01T14:00:04;1.30;;;1.20;;
15443;SDS011;7822;48.146;11.576;2022-08-01T14:02:33;1.20;;;1.10;;
15443;SDS011;7822;48.146;11.576;2022-08-01T14:05:01;1.70;;;1.25;;
15443;SDS011;7822;48.146;11.576;2022-08-01T14:07:29;1.10;;;1.10;;
15443;SDS011;7822;48.146;11.576;2022-08-01T14:09:57;1.95;;;1.23;;
15443;SDS011;7822;48.146;11.576;2022-08-01T14:12:45;2.55;;;1.38;;
15443;SDS011;7822;48.146;11.576;2022-08-01T14:15:14;2.15;;;1.33;;
15443;SDS011;7822;48.146;11.576;2022-08-01T14:18:02;1.27;;;1.17;;
15443;SDS011;7822;48.146;11.576;2022-08-01T14:20:31;1.83;;;1.35;;
15443;SDS011;7822;48.146;11.576;2022-08-01T14:22:59;2.05;;;1.60;;
15443;SDS011;7822;48.146;11.576;2022-08-01T14:25:27;2.08;;;1.38;;
15443;SDS011;7822;48.146;11.576;2022-08-01T14:28:14;1.63;;;1.52;;
15443;SDS011;7822;48.146;11.576;2022-08-01T14:30:44;1.45;;;1.23;;
15443;SDS011;7822;48.146;11.576;2022-08-01T14:33:12;1.10;;;1.10;;
15443;SDS011;7822;48.146;11.576;2022-08-01T14:35:40;1.60;;;1.50;;
15443;SDS011;7822;48.146;11.576;2022-08-01T14:38:28;2.13;;;1.80;;
15443;SDS011;7822;48.146;11.576;2022-08-01T14:40:59;2.28;;;1.70;;
15443;SDS011;7822;48.146;11.576;2022-08-01T14:43:29;2.70;;;1.90;;
15443;SDS011;7822;48.146;11.576;2022-08-01T14:46:00;1.75;;;1.65;;
15443;SDS011;7822;48.146;11.576;2022-08-01T14:48:29;2.33;;;1.83;;
15443;SDS011;7822;48.146;11.576;2022-08-01T14:50:58;1.92;;;1.70;;
15443;SDS011;7822;48.146;11.576;2022-08-01T14:53:28;2.40;;;1.80;;
15443;SDS011;7822;48.146;11.576;2022-08-01T14:55:56;2.22;;;2.03;;
15443;SDS011;7822;48.146;11.576;2022-08-01T14:58:24;3.80;;;2.67;;
15443;SDS011;7822;48.146;11.576;2022-08-01T15:00:51;4.47;;;2.10;;
15443;SDS011;7822;48.146;11.576;2022-08-01T15:03:25;1.90;;;1.80;;
15443;SDS011;7822;48.146;11.576;2022-08-01T15:05:53;3.90;;;2.30;;
15443;SDS011;7822;48.146;11.576;2022-08-01T15:08:21;2.25;;;1.90;;
15443;SDS011;7822;48.146;11.576;2022-08-01T15:10:49;2.10;;;1.90;;
15443;SDS011;7822;48.146;11.576;2022-08-01T15:13:17;2.20;;;1.80;;
15443;SDS011;7822;48.146;11.576;2022-08-01T15:15:45;2.08;;;1.92;;
15443;SDS011;7822;48.146;11.576;2022-08-01T15:18:13;2.35;;;2.15;;
15443;SDS011;7822;48.146;11.576;2022-08-01T15:20:42;2.55;;;2.35;;
15443;SDS011;7822;48.146;11.576;2022-08-01T15:23:11;2.22;;;2.13;;
15443;SDS011;7822;48.146;11.576;2022-08-01T15:25:38;1.95;;;1.85;;
15443;SDS011;7822;48.146;11.576;2022-08-01T15:28:07;2.65;;;1.98;;
15443;SDS011;7822;48.146;11.576;2022-08-01T15:30:35;2.28;;;2.08;;
15443;SDS011;7822;48.146;11.576;2022-08-01T15:33:03;2.40;;;2.20;;
15443;SDS011;7822;48.146;11.576;2022-08-01T15:35:30;2.78;;;2.08;;
15443;SDS011;7822;48.146;11.576;2022-08-01T15:38:00;2.40;;;2.20;;
15443;SDS011;7822;48.146;11.576;2022-08-01T15:40:28;2.45;;;2.25;;
15443;SDS011;7822;48.146;11.576;2022-08-01T15:42:59;4.05;;;2.00;;
15443;SDS011;7822;48.146;11.576;2022-08-01T15:45:27;2.28;;;2.08;;
15443;SDS011;7822;48.146;11.576;2022-08-01T15:48:13;2.92;;;2.70;;
15443;SDS011;7822;48.146;11.576;2022-08-01T15:50:41;3.00;;;2.80;;
15443;SDS011;7822;48.146;11.576;2022-08-01T15:53:10;2.55;;;2.35;;
15443;SDS011;7822;48.146;11.576;2022-08-01T15:55:38;2.40;;;2.20;;
15443;SDS011;7822;48.146;11.576;2022-08-01T15:58:06;2.33;;;2.20;;
15443;SDS011;7822;48.146;11.576;2022-08-01T16:00:36;2.78;;;1.80;;
15443;SDS011;7822;48.146;11.576;2022-08-01T16:03:05;2.35;;;2.15;;
15443;SDS011;7822;48.146;11.576;2022-08-01T16:05:33;2.78;;;2.58;;
15443;SDS011;7822;48.146;11.576;2022-08-01T16:08:10;2.67;;;2.47;;
15443;SDS011;7822;48.146;11.576;2022-08-01T16:10:38;3.58;;;2.15;;
15443;SDS011;7822;48.146;11.576;2022-08-01T16:13:06;2.42;;;2.22;;
15443;SDS011;7822;48.146;11.576;2022-08-01T16:15:34;3.03;;;2.80;;
15443;SDS011;7822;48.146;11.576;2022-08-01T16:18:03;3.58;;;2.58;;
15443;SDS011;7822;48.146;11.576;2022-08-01T16:20:31;2.92;;;2.40;;
15443;SDS011;7822;48.146;11.576;2022-08-01T16:26:32;2.78;;;2.25;;
15443;SDS011;7822;48.146;11.576;2022-08-01T16:29:00;1.98;;;1.60;;
15443;SDS011;7822;48.146;11.576;2022-08-01T16:31:28;2.30;;;2.10;;
15443;SDS011;7822;48.146;11.576;2022-08-01T16:34:15;2.10;;;1.90;;
15443;SDS011;7822;48.146;11.576;2022-08-01T16:36:46;2.03;;;1.70;;
15443;SDS011;7822;48.146;11.576;2022-08-01T16:39:15;2.00;;;1.77;;
15443;SDS011;7822;48.146;11.576;2022-08-01T16:41:50;2.17;;;1.65;;
15443;SDS011;7822;48.146;11.576;2022-08-01T16:44:30;2.55;;;1.90;;
15443;SDS011;7822;48.146;11.576;2022-08-01T16:46:59;1.75;;;1.60;;
15443;SDS011;7822;48.146;11.576;2022-08-01T16:49:27;1.67;;;1.58;;
15443;SDS011;7822;48.146;11.576;2022-08-01T16:51:57;1.70;;;1.60;;
15443;SDS011;7822;48.146;11.576;2022-08-01T16:54:25;1.77;;;1.67;;
15443;SDS011;7822;48.146;11.576;2022-08-01T16:56:54;1.58;;;1.48;;
15443;SDS011;7822;48.146;11.576;2022-08-01T16:59:33;2.13;;;1.90;;
15443;SDS011;7822;48.146;11.576;2022-08-01T17:02:06;2.03;;;1.83;;
15443;SDS011;7822;48.146;11.576;2022-08-01T17:04:35;2.30;;;1.92;;
15443;SDS011;7822;48.146;11.576;2022-08-01T17:07:03;2.42;;;1.85;;
15443;SDS011;7822;48.146;11.576;2022-08-01T17:09:31;2.33;;;2.08;;
15443;SDS011;7822;48.146;11.576;2022-08-01T17:12:00;3.35;;;2.42;;
15443;SDS011;7822;48.146;11.576;2022-08-01T17:14:29;3.78;;;2.80;;
15443;SDS011;7822;48.146;11.576;2022-08-01T17:16:58;2.97;;;2.67;;
15443;SDS011;7822;48.146;11.576;2022-08-01T17:19:26;3.45;;;2.85;;
15443;SDS011;7822;48.146;11.576;2022-08-01T17:21:58;5.57;;;4.75;;
15443;SDS011;7822;48.146;11.576;2022-08-01T17:24:27;4.38;;;3.13;;
15443;SDS011;7822;48.146;11.576;2022-08-01T17:26:55;3.42;;;3.13;;
15443;SDS011;7822;48.146;11.576;2022-08-01T17:29:24;3.47;;;2.97;;
15443;SDS011;7822;48.146;11.576;2022-08-01T17:31:52;4.35;;;3.42;;
15443;SDS011;7822;48.146;11.576;2022-08-01T17:34:20;3.28;;;2.97;;
15443;SDS011;7822;48.146;11.576;2022-08-01T17:41:09;2.40;;;2.20;;
15443;SDS011;7822;48.146;11.576;2022-08-01T17:43:37;1.63;;;1.52;;
15443;SDS011;7822;48.146;11.576;2022-08-01T17:48:50;1.52;;;1.10;;
15443;SDS011;7822;48.146;11.576;2022-08-01T17:51:38;1.60;;;1.50;;
15443;SDS011;7822;48.146;11.576;2022-08-01T17:54:21;1.40;;;1.30;;
15443;SDS011;7822;48.146;11.576;2022-08-01T17:56:48;1.98;;;1.70;;
15443;SDS011;7822;48.146;11.576;2022-08-01T17:59:16;2.10;;;1.90;;
15443;SDS011;7822;48.146;11.576;2022-08-01T18:01:46;2.17;;;1.60;;
15443;SDS011;7822;48.146;11.576;2022-08-01T18:04:14;2.10;;;1.90;;
15443;SDS011;7822;48.146;11.576;2022-08-01T18:06:52;1.58;;;1.42;;
15443;SDS011;7822;48.146;11.576;2022-08-01T18:09:24;1.63;;;1.52;;
15443;SDS011;7822;48.146;11.576;2022-08-01T18:11:52;2.22;;;1.90;;
15443;SDS011;7822;48.146;11.576;2022-08-01T18:14:20;1.63;;;1.52;;
15443;SDS011;7822;48.146;11.576;2022-08-01T18:17:07;1.75;;;1.65;;